sensor_id;sensor_type;location;lat;lon;timestamp;temperature;humidity
13494;DHT22;6819;50.886;4.332;2023-12-20T00:00:58;6.90;99.90
13494;DHT22;6819;50.886;4.332;2023-12-20T00:03:24;6.80;99.90
13494;DHT22;6819;50.886;4.332;2023-12-20T00:05:50;6.80;99.90
13494;DHT22;6819;50.886;4.332;2023-12-20T00:08:16;6.70;99.90
13494;DHT22;6819;50.886;4.332;2023-12-20T00:10:43;6.70;99.90
13494;DHT22;6819;50.886;4.332;2023-12-20T00:13:09;6.70;99.90
13494;DHT22;6819;50.886;4.332;2023-12-20T00:15:35;6.70;99.90
13494;DHT22;6819;50.886;4.332;2023-12-20T00:18:00;6.60;99.90
13494;DHT22;6819;50.886;4.332;2023-12-20T00:20:27;6.60;99.90
13494;DHT22;6819;50.886;4.332;2023-12-20T00:22:58;6.50;99.90
13494;DHT22;6819;50.886;4.332;2023-12-20T00:25:26;6.50;99.90
13494;DHT22;6819;50.886;4.332;2023-12-20T00:27:52;6.40;99.90
13494;DHT22;6819;50.886;4.332;2023-12-20T00:30:18;6.40;99.90
13494;DHT22;6819;50.886;4.332;2023-12-20T00:32:43;6.40;99.90
13494;DHT22;6819;50.886;4.332;2023-12-20T00:35:18;6.40;99.90
13494;DHT22;6819;50.886;4.332;2023-12-20T00:37:44;6.40;99.90
13494;DHT22;6819;50.886;4.332;2023-12-20T00:40:10;6.40;99.90
13494;DHT22;6819;50.886;4.332;2023-12-20T00:42:36;6.30;99.90
13494;DHT22;6819;50.886;4.332;2023-12-20T00:45:01;6.40;99.90
13494;DHT22;6819;50.886;4.332;2023-12-20T00:47:28;6.30;99.90
13494;DHT22;6819;50.886;4.332;2023-12-20T00:49:53;6.30;99.90
13494;DHT22;6819;50.886;4.332;2023-12-20T00:52:19;6.30;99.90
13494;DHT22;6819;50.886;4.332;2023-12-20T00:54:45;6.20;99.90
13494;DHT22;6819;50.886;4.332;2023-12-20T00:57:11;6.20;99.90
13494;DHT22;6819;50.886;4.332;2023-12-20T00:59:37;6.20;99.90
13494;DHT22;6819;50.886;4.332;2023-12-20T01:02:02;6.20;99.90
13494;DHT22;6819;50.886;4.332;2023-12-20T01:04:28;6.20;99.90
13494;DHT22;6819;50.886;4.332;2023-12-20T01:06:54;6.20;99.90
13494;DHT22;6819;50.886;4.332;2023-12-20T01:09:20;6.10;99.90
13494;DHT22;6819;50.886;4.332;2023-12-20T01:11:49;6.00;99.90
13494;DHT22;6819;50.886;4.332;2023-12-20T01:14:14;6.00;99.90
13494;DHT22;6819;50.886;4.332;2023-12-20T01:16:40;6.10;99.90
13494;DHT22;6819;50.886;4.332;2023-12-20T01:19:05;6.10;99.90
13494;DHT22;6819;50.886;4.332;2023-12-20T01:21:32;6.00;99.90
13494;DHT22;6819;50.886;4.332;2023-12-20T01:23:57;6.00;99.90
13494;DHT22;6819;50.886;4.332;2023-12-20T01:26:23;6.00;99.90
13494;DHT22;6819;50.886;4.332;2023-12-20T01:28:49;6.00;99.90
13494;DHT22;6819;50.886;4.332;2023-12-20T01:31:15;6.00;99.90
13494;DHT22;6819;50.886;4.332;2023-12-20T01:33:40;6.00;99.90
13494;DHT22;6819;50.886;4.332;2023-12-20T01:36:06;6.00;99.90
13494;DHT22;6819;50.886;4.332;2023-12-20T01:38:31;6.00;99.90
13494;DHT22;6819;50.886;4.332;2023-12-20T01:40:57;5.90;99.90
13494;DHT22;6819;50.886;4.332;2023-12-20T01:43:23;6.00;99.90
13494;DHT22;6819;50.886;4.332;2023-12-20T01:45:49;5.90;99.90
13494;DHT22;6819;50.886;4.332;2023-12-20T01:48:16;5.90;99.90
13494;DHT22;6819;50.886;4.332;2023-12-20T01:50:42;5.90;99.90
13494;DHT22;6819;50.886;4.332;2023-12-20T01:53:10;5.90;99.90
13494;DHT22;6819;50.886;4.332;2023-12-20T01:55:39;5.80;99.90
13494;DHT22;6819;50.886;4.332;2023-12-20T01:58:06;5.90;99.90
13494;DHT22;6819;50.886;4.332;2023-12-20T02:00:33;6.00;99.90
13494;DHT22;6819;50.886;4.332;2023-12-20T02:03:01;6.00;99.90
13494;DHT22;6819;50.886;4.332;2023-12-20T02:05:27;6.00;99.90
13494;DHT22;6819;50.886;4.332;2023-12-20T02:07:53;5.90;99.90
13494;DHT22;6819;50.886;4.332;2023-12-20T02:10:19;5.90;99.90
13494;DHT22;6819;50.886;4.332;2023-12-20T02:12:44;5.90;99.90
13494;DHT22;6819;50.886;4.332;2023-12-20T02:15:10;5.90;99.90
13494;DHT22;6819;50.886;4.332;2023-12-20T02:17:36;5.90;99.90
13494;DHT22;6819;50.886;4.332;2023-12-20T02:20:02;5.80;99.90
13494;DHT22;6819;50.886;4.332;2023-12-20T02:22:28;5.90;99.90
13494;DHT22;6819;50.886;4.332;2023-12-20T02:24:53;5.80;99.90
13494;DHT22;6819;50.886;4.332;2023-12-20T02:27:19;5.80;99.90
13494;DHT22;6819;50.886;4.332;2023-12-20T02:29:47;5.80;99.90
13494;DHT22;6819;50.886;4.332;2023-12-20T02:32:13;5.80;99.90
13494;DHT22;6819;50.886;4.332;2023-12-20T02:34:38;5.80;99.90
13494;DHT22;6819;50.886;4.332;2023-12-20T02:37:04;5.80;99.90
13494;DHT22;6819;50.886;4.332;2023-12-20T02:39:30;5.80;99.90
13494;DHT22;6819;50.886;4.332;2023-12-20T02:41:56;5.70;99.90
13494;DHT22;6819;50.886;4.332;2023-12-20T02:44:21;5.80;99.90
13494;DHT22;6819;50.886;4.332;2023-12-20T02:46:47;5.80;99.90
13494;DHT22;6819;50.886;4.332;2023-12-20T02:49:13;5.80;99.90
13494;DHT22;6819;50.886;4.332;2023-12-20T02:51:38;5.80;99.90
13494;DHT22;6819;50.886;4.332;2023-12-20T02:54:04;5.80;99.90
13494;DHT22;6819;50.886;4.332;2023-12-20T02:56:32;5.80;99.90
13494;DHT22;6819;50.886;4.332;2023-12-20T02:58:57;5.90;99.90
13494;DHT22;6819;50.886;4.332;2023-12-20T03:01:23;5.80;99.90
13494;DHT22;6819;50.886;4.332;2023-12-20T03:03:48;5.80;99.90
13494;DHT22;6819;50.886;4.332;2023-12-20T03:06:20;5.80;99.90
13494;DHT22;6819;50.886;4.332;2023-12-20T03:08:46;5.90;99.90
13494;DHT22;6819;50.886;4.332;2023-12-20T03:11:11;5.90;99.90
13494;DHT22;6819;50.886;4.332;2023-12-20T03:13:37;6.00;99.90
13494;DHT22;6819;50.886;4.332;2023-12-20T03:16:10;6.00;99.90
13494;DHT22;6819;50.886;4.332;2023-12-20T03:18:36;6.00;99.90
13494;DHT22;6819;50.886;4.332;2023-12-20T03:21:02;6.10;99.90
13494;DHT22;6819;50.886;4.332;2023-12-20T03:23:27;6.10;99.90
13494;DHT22;6819;50.886;4.332;2023-12-20T03:25:53;6.10;99.90
13494;DHT22;6819;50.886;4.332;2023-12-20T03:28:19;6.10;99.90
13494;DHT22;6819;50.886;4.332;2023-12-20T03:30:44;6.20;99.90
13494;DHT22;6819;50.886;4.332;2023-12-20T03:33:10;6.20;99.90
13494;DHT22;6819;50.886;4.332;2023-12-20T03:35:36;6.20;99.90
13494;DHT22;6819;50.886;4.332;2023-12-20T03:38:02;6.30;99.90
13494;DHT22;6819;50.886;4.332;2023-12-20T03:40:28;6.30;99.90
13494;DHT22;6819;50.886;4.332;2023-12-20T03:42:53;6.30;99.90
13494;DHT22;6819;50.886;4.332;2023-12-20T03:45:19;6.30;99.90
13494;DHT22;6819;50.886;4.332;2023-12-20T03:47:45;6.20;99.90
13494;DHT22;6819;50.886;4.332;2023-12-20T03:50:10;6.30;99.90
13494;DHT22;6819;50.886;4.332;2023-12-20T03:52:36;6.40;99.90
13494;DHT22;6819;50.886;4.332;2023-12-20T03:55:02;6.40;99.90
13494;DHT22;6819;50.886;4.332;2023-12-20T03:57:27;6.40;99.90
13494;DHT22;6819;50.886;4.332;2023-12-20T03:59:53;6.40;99.90
13494;DHT22;6819;50.886;4.332;2023-12-20T04:02:19;6.50;99.90
13494;DHT22;6819;50.886;4.332;2023-12-20T04:04:44;6.40;99.90
13494;DHT22;6819;50.886;4.332;2023-12-20T04:07:10;6.50;99.90
13494;DHT22;6819;50.886;4.332;2023-12-20T04:09:36;6.50;99.90
13494;DHT22;6819;50.886;4.332;2023-12-20T04:12:01;6.50;99.90
13494;DHT22;6819;50.886;4.332;2023-12-20T04:14:27;6.50;99.90
13494;DHT22;6819;50.886;4.332;2023-12-20T04:16:53;6.40;99.90
13494;DHT22;6819;50.886;4.332;2023-12-20T04:19:19;6.50;99.90
13494;DHT22;6819;50.886;4.332;2023-12-20T04:21:44;6.40;99.90
13494;DHT22;6819;50.886;4.332;2023-12-20T04:24:11;6.50;99.90
13494;DHT22;6819;50.886;4.332;2023-12-20T04:26:37;6.40;99.90
13494;DHT22;6819;50.886;4.332;2023-12-20T04:29:02;6.40;99.90
13494;DHT22;6819;50.886;4.332;2023-12-20T04:31:28;6.40;99.90
13494;DHT22;6819;50.886;4.332;2023-12-20T04:33:54;6.40;99.90
13494;DHT22;6819;50.886;4.332;2023-12-20T04:36:19;6.30;99.90
13494;DHT22;6819;50.886;4.332;2023-12-20T04:38:45;6.40;99.90
13494;DHT22;6819;50.886;4.332;2023-12-20T04:41:10;6.40;99.90
13494;DHT22;6819;50.886;4.332;2023-12-20T04:43:36;6.40;99.90
13494;DHT22;6819;50.886;4.332;2023-12-20T04:46:03;6.40;99.90
13494;DHT22;6819;50.886;4.332;2023-12-20T04:48:28;6.40;99.90
13494;DHT22;6819;50.886;4.332;2023-12-20T04:50:54;6.40;99.90
13494;DHT22;6819;50.886;4.332;2023-12-20T04:53:20;6.30;99.90
13494;DHT22;6819;50.886;4.332;2023-12-20T04:55:45;6.30;99.90
13494;DHT22;6819;50.886;4.332;2023-12-20T04:58:11;6.40;99.90
13494;DHT22;6819;50.886;4.332;2023-12-20T05:00:36;6.40;99.90
13494;DHT22;6819;50.886;4.332;2023-12-20T05:03:02;6.40;99.90
13494;DHT22;6819;50.886;4.332;2023-12-20T05:05:28;6.40;99.90
13494;DHT22;6819;50.886;4.332;2023-12-20T05:07:53;6.40;99.90
13494;DHT22;6819;50.886;4.332;2023-12-20T05:10:19;6.40;99.90
13494;DHT22;6819;50.886;4.332;2023-12-20T05:12:45;6.40;99.90
13494;DHT22;6819;50.886;4.332;2023-12-20T05:15:10;6.40;99.90
13494;DHT22;6819;50.886;4.332;2023-12-20T05:17:36;6.40;99.90
13494;DHT22;6819;50.886;4.332;2023-12-20T05:20:02;6.40;99.90
13494;DHT22;6819;50.886;4.332;2023-12-20T05:22:27;6.30;99.90
13494;DHT22;6819;50.886;4.332;2023-12-20T05:24:53;6.30;99.90
13494;DHT22;6819;50.886;4.332;2023-12-20T05:27:19;6.20;99.90
13494;DHT22;6819;50.886;4.332;2023-12-20T05:29:45;6.20;99.90
13494;DHT22;6819;50.886;4.332;2023-12-20T05:32:10;6.20;99.90
13494;DHT22;6819;50.886;4.332;2023-12-20T05:34:36;6.20;99.90
13494;DHT22;6819;50.886;4.332;2023-12-20T05:37:02;6.20;99.90
13494;DHT22;6819;50.886;4.332;2023-12-20T05:39:28;6.20;99.90
13494;DHT22;6819;50.886;4.332;2023-12-20T05:41:53;6.10;99.90
13494;DHT22;6819;50.886;4.332;2023-12-20T05:44:19;6.10;99.90
13494;DHT22;6819;50.886;4.332;2023-12-20T05:46:44;6.10;99.90
13494;DHT22;6819;50.886;4.332;2023-12-20T05:49:10;6.10;99.90
13494;DHT22;6819;50.886;4.332;2023-12-20T05:51:36;6.10;99.90
13494;DHT22;6819;50.886;4.332;2023-12-20T05:54:02;6.00;99.90
13494;DHT22;6819;50.886;4.332;2023-12-20T05:56:27;6.00;99.90
13494;DHT22;6819;50.886;4.332;2023-12-20T05:58:53;6.00;99.90
13494;DHT22;6819;50.886;4.332;2023-12-20T06:01:19;6.00;99.90
13494;DHT22;6819;50.886;4.332;2023-12-20T06:03:44;5.90;99.90
13494;DHT22;6819;50.886;4.332;2023-12-20T06:06:11;6.00;99.90
13494;DHT22;6819;50.886;4.332;2023-12-20T06:08:38;6.00;99.90
13494;DHT22;6819;50.886;4.332;2023-12-20T06:11:04;6.00;99.90
13494;DHT22;6819;50.886;4.332;2023-12-20T06:13:30;6.00;99.90
13494;DHT22;6819;50.886;4.332;2023-12-20T06:15:56;6.00;99.90
13494;DHT22;6819;50.886;4.332;2023-12-20T06:18:22;6.00;99.90
13494;DHT22;6819;50.886;4.332;2023-12-20T06:20:48;6.00;99.90
13494;DHT22;6819;50.886;4.332;2023-12-20T06:23:14;6.00;99.90
13494;DHT22;6819;50.886;4.332;2023-12-20T06:25:39;6.00;99.90
13494;DHT22;6819;50.886;4.332;2023-12-20T06:28:05;6.00;99.90
13494;DHT22;6819;50.886;4.332;2023-12-20T06:30:31;6.00;99.90
13494;DHT22;6819;50.886;4.332;2023-12-20T06:32:58;6.00;99.90
13494;DHT22;6819;50.886;4.332;2023-12-20T06:35:24;6.00;99.90
13494;DHT22;6819;50.886;4.332;2023-12-20T06:37:50;6.00;99.90
13494;DHT22;6819;50.886;4.332;2023-12-20T06:40:15;6.00;99.90
13494;DHT22;6819;50.886;4.332;2023-12-20T06:42:41;6.00;99.90
13494;DHT22;6819;50.886;4.332;2023-12-20T06:45:08;6.00;99.90
13494;DHT22;6819;50.886;4.332;2023-12-20T06:47:33;6.00;99.90
13494;DHT22;6819;50.886;4.332;2023-12-20T06:49:59;6.00;99.90
13494;DHT22;6819;50.886;4.332;2023-12-20T06:52:26;6.00;99.90
13494;DHT22;6819;50.886;4.332;2023-12-20T06:54:51;5.90;99.90
13494;DHT22;6819;50.886;4.332;2023-12-20T06:57:17;5.90;99.90
13494;DHT22;6819;50.886;4.332;2023-12-20T06:59:43;5.90;99.90
13494;DHT22;6819;50.886;4.332;2023-12-20T07:02:09;5.90;99.90
13494;DHT22;6819;50.886;4.332;2023-12-20T07:04:39;5.90;99.90
13494;DHT22;6819;50.886;4.332;2023-12-20T07:07:05;5.80;99.90
13494;DHT22;6819;50.886;4.332;2023-12-20T07:09:32;5.80;99.90
13494;DHT22;6819;50.886;4.332;2023-12-20T07:11:58;5.80;99.90
13494;DHT22;6819;50.886;4.332;2023-12-20T07:14:24;5.90;99.90
13494;DHT22;6819;50.886;4.332;2023-12-20T07:16:49;5.80;99.90
13494;DHT22;6819;50.886;4.332;2023-12-20T07:19:15;5.90;99.90
13494;DHT22;6819;50.886;4.332;2023-12-20T07:21:41;5.80;99.90
13494;DHT22;6819;50.886;4.332;2023-12-20T07:24:06;5.80;99.90
13494;DHT22;6819;50.886;4.332;2023-12-20T07:26:32;5.70;99.90
13494;DHT22;6819;50.886;4.332;2023-12-20T07:28:59;5.70;99.90
13494;DHT22;6819;50.886;4.332;2023-12-20T07:31:25;5.70;99.90
13494;DHT22;6819;50.886;4.332;2023-12-20T07:33:50;5.70;99.90
13494;DHT22;6819;50.886;4.332;2023-12-20T07:36:16;5.80;99.90
13494;DHT22;6819;50.886;4.332;2023-12-20T07:38:41;5.60;99.90
13494;DHT22;6819;50.886;4.332;2023-12-20T07:41:10;5.60;99.90
13494;DHT22;6819;50.886;4.332;2023-12-20T07:43:36;5.60;99.90
13494;DHT22;6819;50.886;4.332;2023-12-20T07:46:08;5.60;99.90
13494;DHT22;6819;50.886;4.332;2023-12-20T07:48:37;5.60;99.90
13494;DHT22;6819;50.886;4.332;2023-12-20T07:51:06;5.60;99.90
13494;DHT22;6819;50.886;4.332;2023-12-20T07:53:33;5.60;99.90
13494;DHT22;6819;50.886;4.332;2023-12-20T07:56:00;5.60;99.90
13494;DHT22;6819;50.886;4.332;2023-12-20T07:58:26;5.60;99.90
13494;DHT22;6819;50.886;4.332;2023-12-20T08:00:51;5.70;99.90
13494;DHT22;6819;50.886;4.332;2023-12-20T08:03:17;5.50;99.90
13494;DHT22;6819;50.886;4.332;2023-12-20T08:05:43;5.60;99.90
13494;DHT22;6819;50.886;4.332;2023-12-20T08:08:08;5.60;99.90
13494;DHT22;6819;50.886;4.332;2023-12-20T08:10:34;5.60;99.90
13494;DHT22;6819;50.886;4.332;2023-12-20T08:12:59;5.60;99.90
13494;DHT22;6819;50.886;4.332;2023-12-20T08:15:25;5.50;99.90
13494;DHT22;6819;50.886;4.332;2023-12-20T08:17:51;5.60;99.90
13494;DHT22;6819;50.886;4.332;2023-12-20T08:25:09;5.70;99.90
13494;DHT22;6819;50.886;4.332;2023-12-20T08:27:40;5.70;99.90
13494;DHT22;6819;50.886;4.332;2023-12-20T08:30:08;5.70;99.90
13494;DHT22;6819;50.886;4.332;2023-12-20T08:32:35;5.80;99.90
13494;DHT22;6819;50.886;4.332;2023-12-20T08:35:00;5.70;99.90
13494;DHT22;6819;50.886;4.332;2023-12-20T08:37:26;5.80;99.90
13494;DHT22;6819;50.886;4.332;2023-12-20T08:39:51;5.90;99.90
13494;DHT22;6819;50.886;4.332;2023-12-20T08:42:17;5.90;99.90
13494;DHT22;6819;50.886;4.332;2023-12-20T08:44:43;5.80;99.90
13494;DHT22;6819;50.886;4.332;2023-12-20T08:47:09;5.80;99.90
13494;DHT22;6819;50.886;4.332;2023-12-20T08:49:38;5.80;99.90
13494;DHT22;6819;50.886;4.332;2023-12-20T08:52:04;5.80;99.90
13494;DHT22;6819;50.886;4.332;2023-12-20T08:54:30;5.90;99.90
13494;DHT22;6819;50.886;4.332;2023-12-20T08:56:56;5.90;99.90
13494;DHT22;6819;50.886;4.332;2023-12-20T08:59:21;6.00;99.90
13494;DHT22;6819;50.886;4.332;2023-12-20T09:01:47;5.90;99.90
13494;DHT22;6819;50.886;4.332;2023-12-20T09:04:13;6.00;99.90
13494;DHT22;6819;50.886;4.332;2023-12-20T09:06:39;6.00;99.90
13494;DHT22;6819;50.886;4.332;2023-12-20T09:09:05;6.10;99.90
13494;DHT22;6819;50.886;4.332;2023-12-20T09:11:31;6.20;99.90
13494;DHT22;6819;50.886;4.332;2023-12-20T09:13:57;6.30;99.90
13494;DHT22;6819;50.886;4.332;2023-12-20T09:16:22;6.30;99.90
13494;DHT22;6819;50.886;4.332;2023-12-20T09:18:48;6.40;99.90
13494;DHT22;6819;50.886;4.332;2023-12-20T09:21:14;6.40;99.90
13494;DHT22;6819;50.886;4.332;2023-12-20T09:23:39;6.50;99.90
13494;DHT22;6819;50.886;4.332;2023-12-20T09:26:05;6.60;99.90
13494;DHT22;6819;50.886;4.332;2023-12-20T09:28:31;6.60;99.90
13494;DHT22;6819;50.886;4.332;2023-12-20T09:31:01;6.70;99.90
13494;DHT22;6819;50.886;4.332;2023-12-20T09:33:26;6.70;99.90
13494;DHT22;6819;50.886;4.332;2023-12-20T09:35:52;6.80;99.90
13494;DHT22;6819;50.886;4.332;2023-12-20T09:38:18;6.80;99.90
13494;DHT22;6819;50.886;4.332;2023-12-20T09:40:43;6.90;99.90
13494;DHT22;6819;50.886;4.332;2023-12-20T09:43:12;6.90;99.90
13494;DHT22;6819;50.886;4.332;2023-12-20T09:45:39;7.00;99.90
13494;DHT22;6819;50.886;4.332;2023-12-20T09:48:06;6.90;99.90
13494;DHT22;6819;50.886;4.332;2023-12-20T09:50:32;7.00;99.90
13494;DHT22;6819;50.886;4.332;2023-12-20T09:52:58;7.00;99.90
13494;DHT22;6819;50.886;4.332;2023-12-20T09:55:27;7.00;99.90
13494;DHT22;6819;50.886;4.332;2023-12-20T09:57:54;7.00;99.90
13494;DHT22;6819;50.886;4.332;2023-12-20T10:00:20;7.00;99.90
13494;DHT22;6819;50.886;4.332;2023-12-20T10:02:51;7.10;99.90
13494;DHT22;6819;50.886;4.332;2023-12-20T10:05:29;7.10;99.90
13494;DHT22;6819;50.886;4.332;2023-12-20T10:07:55;7.10;99.90
13494;DHT22;6819;50.886;4.332;2023-12-20T10:10:21;7.10;99.90
13494;DHT22;6819;50.886;4.332;2023-12-20T10:13:03;7.20;99.90
13494;DHT22;6819;50.886;4.332;2023-12-20T10:15:29;7.30;99.90
13494;DHT22;6819;50.886;4.332;2023-12-20T10:17:56;7.50;99.90
13494;DHT22;6819;50.886;4.332;2023-12-20T10:20:22;7.70;99.90
13494;DHT22;6819;50.886;4.332;2023-12-20T10:22:49;7.70;99.90
13494;DHT22;6819;50.886;4.332;2023-12-20T10:25:15;7.70;99.90
13494;DHT22;6819;50.886;4.332;2023-12-20T10:27:41;7.60;99.90
13494;DHT22;6819;50.886;4.332;2023-12-20T10:30:08;7.60;99.90
13494;DHT22;6819;50.886;4.332;2023-12-20T10:32:34;7.60;99.90
13494;DHT22;6819;50.886;4.332;2023-12-20T10:35:00;7.60;99.90
13494;DHT22;6819;50.886;4.332;2023-12-20T10:37:25;7.60;99.90
13494;DHT22;6819;50.886;4.332;2023-12-20T10:39:53;7.70;99.90
13494;DHT22;6819;50.886;4.332;2023-12-20T10:42:22;7.70;99.90
13494;DHT22;6819;50.886;4.332;2023-12-20T10:44:49;7.70;99.90
13494;DHT22;6819;50.886;4.332;2023-12-20T10:47:16;7.70;99.90
13494;DHT22;6819;50.886;4.332;2023-12-20T10:49:43;7.70;99.90
13494;DHT22;6819;50.886;4.332;2023-12-20T10:52:11;7.70;99.90
13494;DHT22;6819;50.886;4.332;2023-12-20T10:54:39;7.70;99.90
13494;DHT22;6819;50.886;4.332;2023-12-20T10:57:06;7.80;99.90
13494;DHT22;6819;50.886;4.332;2023-12-20T10:59:37;7.90;99.90
13494;DHT22;6819;50.886;4.332;2023-12-20T11:02:06;7.80;99.90
13494;DHT22;6819;50.886;4.332;2023-12-20T11:04:58;7.90;99.90
13494;DHT22;6819;50.886;4.332;2023-12-20T11:07:38;7.90;99.90
13494;DHT22;6819;50.886;4.332;2023-12-20T11:12:50;8.00;99.90
13494;DHT22;6819;50.886;4.332;2023-12-20T11:15:18;8.00;99.90
13494;DHT22;6819;50.886;4.332;2023-12-20T11:17:45;8.00;99.90
13494;DHT22;6819;50.886;4.332;2023-12-20T11:20:13;8.00;99.90
13494;DHT22;6819;50.886;4.332;2023-12-20T11:22:40;8.00;99.90
13494;DHT22;6819;50.886;4.332;2023-12-20T11:25:17;8.00;99.90
13494;DHT22;6819;50.886;4.332;2023-12-20T11:27:43;8.00;99.90
13494;DHT22;6819;50.886;4.332;2023-12-20T11:30:09;8.10;99.90
13494;DHT22;6819;50.886;4.332;2023-12-20T11:32:36;8.00;99.90
13494;DHT22;6819;50.886;4.332;2023-12-20T11:35:17;8.00;99.90
13494;DHT22;6819;50.886;4.332;2023-12-20T11:37:45;8.00;99.90
13494;DHT22;6819;50.886;4.332;2023-12-20T11:40:16;8.10;99.90
13494;DHT22;6819;50.886;4.332;2023-12-20T11:42:44;8.00;99.90
13494;DHT22;6819;50.886;4.332;2023-12-20T11:45:13;8.00;99.90
13494;DHT22;6819;50.886;4.332;2023-12-20T11:47:45;8.10;99.90
13494;DHT22;6819;50.886;4.332;2023-12-20T11:50:11;8.10;99.90
13494;DHT22;6819;50.886;4.332;2023-12-20T11:52:37;8.10;99.90
13494;DHT22;6819;50.886;4.332;2023-12-20T11:55:03;8.00;99.90
13494;DHT22;6819;50.886;4.332;2023-12-20T11:57:30;8.10;99.90
13494;DHT22;6819;50.886;4.332;2023-12-20T11:59:56;8.10;99.90
13494;DHT22;6819;50.886;4.332;2023-12-20T12:02:22;8.20;99.90
13494;DHT22;6819;50.886;4.332;2023-12-20T12:04:49;8.10;99.90
13494;DHT22;6819;50.886;4.332;2023-12-20T12:07:16;8.20;99.90
13494;DHT22;6819;50.886;4.332;2023-12-20T12:09:43;8.20;99.90
13494;DHT22;6819;50.886;4.332;2023-12-20T12:12:09;8.20;99.90
13494;DHT22;6819;50.886;4.332;2023-12-20T12:14:35;8.30;99.90
13494;DHT22;6819;50.886;4.332;2023-12-20T12:17:02;8.30;99.90
13494;DHT22;6819;50.886;4.332;2023-12-20T12:19:29;8.30;99.90
13494;DHT22;6819;50.886;4.332;2023-12-20T12:22:10;8.40;99.90
13494;DHT22;6819;50.886;4.332;2023-12-20T12:24:45;8.40;99.90
13494;DHT22;6819;50.886;4.332;2023-12-20T12:27:12;8.40;99.90
13494;DHT22;6819;50.886;4.332;2023-12-20T12:29:38;8.40;99.90
13494;DHT22;6819;50.886;4.332;2023-12-20T12:32:05;8.40;99.90
13494;DHT22;6819;50.886;4.332;2023-12-20T12:34:32;8.50;99.90
13494;DHT22;6819;50.886;4.332;2023-12-20T12:37:00;8.50;99.90
13494;DHT22;6819;50.886;4.332;2023-12-20T12:39:25;8.50;99.90
13494;DHT22;6819;50.886;4.332;2023-12-20T12:41:52;8.50;99.90
13494;DHT22;6819;50.886;4.332;2023-12-20T12:44:18;8.50;99.90
13494;DHT22;6819;50.886;4.332;2023-12-20T12:46:47;8.50;99.90
13494;DHT22;6819;50.886;4.332;2023-12-20T12:49:15;8.50;99.90
13494;DHT22;6819;50.886;4.332;2023-12-20T12:51:41;8.60;99.90
13494;DHT22;6819;50.886;4.332;2023-12-20T12:54:06;8.60;99.90
13494;DHT22;6819;50.886;4.332;2023-12-20T12:56:32;8.60;99.90
13494;DHT22;6819;50.886;4.332;2023-12-20T12:58:58;8.60;99.90
13494;DHT22;6819;50.886;4.332;2023-12-20T13:01:24;8.60;99.90
13494;DHT22;6819;50.886;4.332;2023-12-20T13:03:49;8.60;99.90
13494;DHT22;6819;50.886;4.332;2023-12-20T13:06:15;8.60;99.90
13494;DHT22;6819;50.886;4.332;2023-12-20T13:08:41;8.60;99.90
13494;DHT22;6819;50.886;4.332;2023-12-20T13:13:33;8.60;99.90
13494;DHT22;6819;50.886;4.332;2023-12-20T13:18:26;8.60;99.90
13494;DHT22;6819;50.886;4.332;2023-12-20T13:23:18;8.70;99.90
13494;DHT22;6819;50.886;4.332;2023-12-20T13:25:43;8.80;99.90
13494;DHT22;6819;50.886;4.332;2023-12-20T13:28:11;8.80;99.90
13494;DHT22;6819;50.886;4.332;2023-12-20T13:30:36;8.80;99.90
13494;DHT22;6819;50.886;4.332;2023-12-20T13:33:02;8.80;99.90
13494;DHT22;6819;50.886;4.332;2023-12-20T13:35:28;8.80;99.90
13494;DHT22;6819;50.886;4.332;2023-12-20T13:37:53;8.80;99.90
13494;DHT22;6819;50.886;4.332;2023-12-20T13:40:19;8.90;99.90
13494;DHT22;6819;50.886;4.332;2023-12-20T13:42:45;8.90;99.90
13494;DHT22;6819;50.886;4.332;2023-12-20T13:47:36;9.00;99.90
13494;DHT22;6819;50.886;4.332;2023-12-20T13:52:29;9.00;99.90
13494;DHT22;6819;50.886;4.332;2023-12-20T13:54:55;8.90;99.90
13494;DHT22;6819;50.886;4.332;2023-12-20T13:59:47;9.00;99.90
13494;DHT22;6819;50.886;4.332;2023-12-20T14:02:13;9.10;99.90
13494;DHT22;6819;50.886;4.332;2023-12-20T14:04:38;9.10;99.90
13494;DHT22;6819;50.886;4.332;2023-12-20T14:09:33;9.10;99.90
13494;DHT22;6819;50.886;4.332;2023-12-20T14:11:59;9.10;99.90
13494;DHT22;6819;50.886;4.332;2023-12-20T14:16:50;9.20;99.90
13494;DHT22;6819;50.886;4.332;2023-12-20T14:24:12;9.30;99.90
13494;DHT22;6819;50.886;4.332;2023-12-20T14:26:40;9.30;99.90
13494;DHT22;6819;50.886;4.332;2023-12-20T14:29:06;9.30;99.90
13494;DHT22;6819;50.886;4.332;2023-12-20T14:36:26;9.20;99.90
13494;DHT22;6819;50.886;4.332;2023-12-20T14:43:44;9.30;99.90
13494;DHT22;6819;50.886;4.332;2023-12-20T14:46:12;9.30;99.90
13494;DHT22;6819;50.886;4.332;2023-12-20T14:48:37;9.30;99.90
13494;DHT22;6819;50.886;4.332;2023-12-20T14:53:29;9.30;99.90
13494;DHT22;6819;50.886;4.332;2023-12-20T14:55:55;9.30;99.90
13494;DHT22;6819;50.886;4.332;2023-12-20T15:00:46;9.30;99.90
13494;DHT22;6819;50.886;4.332;2023-12-20T15:08:05;9.40;99.90
13494;DHT22;6819;50.886;4.332;2023-12-20T15:10:30;9.30;99.90
13494;DHT22;6819;50.886;4.332;2023-12-20T15:12:56;9.30;99.90
13494;DHT22;6819;50.886;4.332;2023-12-20T15:17:48;9.40;99.90
13494;DHT22;6819;50.886;4.332;2023-12-20T15:22:39;9.40;99.90
13494;DHT22;6819;50.886;4.332;2023-12-20T15:27:35;9.30;99.90
13494;DHT22;6819;50.886;4.332;2023-12-20T15:30:03;9.40;99.90
13494;DHT22;6819;50.886;4.332;2023-12-20T15:32:28;9.40;99.90
13494;DHT22;6819;50.886;4.332;2023-12-20T15:34:54;9.30;99.90
13494;DHT22;6819;50.886;4.332;2023-12-20T15:37:20;9.30;99.90
13494;DHT22;6819;50.886;4.332;2023-12-20T15:42:11;9.40;99.90
13494;DHT22;6819;50.886;4.332;2023-12-20T15:44:37;9.40;99.90
13494;DHT22;6819;50.886;4.332;2023-12-20T15:47:03;9.40;99.90
13494;DHT22;6819;50.886;4.332;2023-12-20T15:51:54;9.40;99.90
13494;DHT22;6819;50.886;4.332;2023-12-20T15:54:20;9.40;99.90
13494;DHT22;6819;50.886;4.332;2023-12-20T15:56:46;9.40;99.90
13494;DHT22;6819;50.886;4.332;2023-12-20T15:59:13;9.40;99.90
13494;DHT22;6819;50.886;4.332;2023-12-20T16:01:38;9.40;99.90
13494;DHT22;6819;50.886;4.332;2023-12-20T16:04:04;9.30;99.90
13494;DHT22;6819;50.886;4.332;2023-12-20T16:06:30;9.30;99.90
13494;DHT22;6819;50.886;4.332;2023-12-20T16:08:56;9.30;99.90
13494;DHT22;6819;50.886;4.332;2023-12-20T16:11:22;9.30;99.90
13494;DHT22;6819;50.886;4.332;2023-12-20T16:13:47;9.30;99.90
13494;DHT22;6819;50.886;4.332;2023-12-20T16:16:13;9.30;99.90
13494;DHT22;6819;50.886;4.332;2023-12-20T16:18:39;9.30;99.90
13494;DHT22;6819;50.886;4.332;2023-12-20T16:21:04;9.30;99.90
13494;DHT22;6819;50.886;4.332;2023-12-20T16:23:30;9.30;99.90
13494;DHT22;6819;50.886;4.332;2023-12-20T16:25:57;9.30;99.90
13494;DHT22;6819;50.886;4.332;2023-12-20T16:28:23;9.30;99.90
13494;DHT22;6819;50.886;4.332;2023-12-20T16:30:49;9.40;99.90
13494;DHT22;6819;50.886;4.332;2023-12-20T16:33:15;9.30;99.90
13494;DHT22;6819;50.886;4.332;2023-12-20T16:35:41;9.30;99.90
13494;DHT22;6819;50.886;4.332;2023-12-20T16:38:06;9.30;99.90
13494;DHT22;6819;50.886;4.332;2023-12-20T16:40:32;9.30;99.90
13494;DHT22;6819;50.886;4.332;2023-12-20T16:42:57;9.40;99.90
13494;DHT22;6819;50.886;4.332;2023-12-20T16:45:24;9.40;99.90
13494;DHT22;6819;50.886;4.332;2023-12-20T16:47:50;9.40;99.90
13494;DHT22;6819;50.886;4.332;2023-12-20T16:50:16;9.30;99.90
13494;DHT22;6819;50.886;4.332;2023-12-20T16:52:41;9.30;99.90
13494;DHT22;6819;50.886;4.332;2023-12-20T16:55:11;9.30;99.90
13494;DHT22;6819;50.886;4.332;2023-12-20T16:57:38;9.30;99.90
13494;DHT22;6819;50.886;4.332;2023-12-20T17:00:05;9.30;99.90